createdAt,value
2022-08-30T00:01:14.059Z,6.27
2022-08-30T00:03:46.696Z,6.80
2022-08-30T00:06:15.825Z,6.33
2022-08-30T00:08:44.202Z,6.20
2022-08-30T00:11:14.370Z,6.20
2022-08-30T00:13:43.165Z,5.93
2022-08-30T00:16:10.653Z,6.20
2022-08-30T00:18:38.213Z,7.03
2022-08-30T00:21:06.282Z,6.93
2022-08-30T00:23:33.293Z,7.43
2022-08-30T00:26:00.562Z,6.20
2022-08-30T00:28:27.506Z,6.30
2022-08-30T00:30:54.863Z,7.07
2022-08-30T00:33:23.038Z,7.10
2022-08-30T00:35:50.474Z,6.40
2022-08-30T00:38:17.263Z,6.57
2022-08-30T00:40:45.483Z,6.60
2022-08-30T00:43:23.267Z,6.63
2022-08-30T00:45:51.109Z,6.37
2022-08-30T00:48:18.248Z,6.63
2022-08-30T00:50:58.434Z,7.63
2022-08-30T00:53:29.032Z,6.67
2022-08-30T00:55:56.309Z,6.50
2022-08-30T00:58:28.007Z,6.37
2022-08-30T01:00:57.015Z,6.47
2022-08-30T01:03:24.136Z,7.17
2022-08-30T01:05:52.418Z,7.50
2022-08-30T01:08:22.190Z,6.83
2022-08-30T01:10:51.335Z,8.53
2022-08-30T01:13:18.380Z,7.17
2022-08-30T01:15:46.247Z,6.90
2022-08-30T01:18:14.903Z,7.80
2022-08-30T01:20:54.143Z,6.93
2022-08-30T01:23:21.982Z,6.20
2022-08-30T01:25:50.586Z,7.40
2022-08-30T01:28:23.733Z,7.47
2022-08-30T01:30:51.489Z,6.63
2022-08-30T01:33:22.159Z,7.10
2022-08-30T01:35:54.085Z,6.90
2022-08-30T01:38:35.574Z,6.47
2022-08-30T01:41:16.797Z,7.50
2022-08-30T01:43:44.202Z,7.37
2022-08-30T01:46:12.225Z,6.77
2022-08-30T01:48:42.303Z,7.50
2022-08-30T01:51:21.859Z,7.50
2022-08-30T01:53:48.754Z,7.47
2022-08-30T01:56:15.710Z,7.33
2022-08-30T01:58:42.451Z,6.70
2022-08-30T02:01:12.752Z,7.20
2022-08-30T02:03:41.559Z,7.17
2022-08-30T02:06:10.740Z,7.03
2022-08-30T02:08:38.195Z,6.83
2022-08-30T02:11:06.545Z,7.00
2022-08-30T02:13:35.236Z,6.53
2022-08-30T02:16:01.918Z,7.27
2022-08-30T02:18:29.126Z,6.67
2022-08-30T02:20:55.863Z,6.90
2022-08-30T02:23:22.603Z,8.47
2022-08-30T02:25:49.386Z,8.30
2022-08-30T02:28:16.108Z,6.30
2022-08-30T02:30:46.502Z,7.80
2022-08-30T02:33:13.384Z,7.50
2022-08-30T02:35:40.461Z,7.70
2022-08-30T02:38:07.981Z,7.30
2022-08-30T02:40:35.238Z,6.20
2022-08-30T02:43:06.089Z,6.83
2022-08-30T02:45:32.961Z,6.73
2022-08-30T02:47:59.977Z,7.93
2022-08-30T02:50:26.914Z,6.63
2022-08-30T02:52:54.373Z,7.83
2022-08-30T02:55:22.685Z,7.00
2022-08-30T02:57:49.598Z,7.73
2022-08-30T03:00:19.376Z,8.07
2022-08-30T03:02:46.198Z,7.50
2022-08-30T03:05:15.480Z,8.97
2022-08-30T03:07:43.344Z,8.47
2022-08-30T03:10:10.965Z,8.17
2022-08-30T03:12:38.055Z,8.03
2022-08-30T03:15:10.546Z,7.50
2022-08-30T03:17:37.267Z,6.57
2022-08-30T03:20:05.047Z,7.20
2022-08-30T03:22:32.001Z,7.43
2022-08-30T03:24:59.668Z,8.60
2022-08-30T03:27:28.057Z,7.23
2022-08-30T03:29:55.274Z,7.60
2022-08-30T03:32:22.729Z,9.03
2022-08-30T03:34:50.229Z,7.40
2022-08-30T03:37:17.440Z,7.93
2022-08-30T03:39:45.510Z,8.57
2022-08-30T03:42:12.704Z,8.87
2022-08-30T03:44:39.851Z,8.87
2022-08-30T03:47:08.458Z,8.23
2022-08-30T03:49:35.623Z,7.60
2022-08-30T03:52:02.748Z,7.40
2022-08-30T03:54:29.464Z,8.57
2022-08-30T03:56:56.459Z,8.30
2022-08-30T03:59:23.416Z,8.30
2022-08-30T04:01:50.266Z,7.77
2022-08-30T04:04:20.942Z,7.77
2022-08-30T04:06:48.776Z,7.73
2022-08-30T04:09:15.572Z,8.30
2022-08-30T04:11:42.554Z,8.27
2022-08-30T04:14:09.352Z,8.13
2022-08-30T04:16:36.455Z,8.20
2022-08-30T04:19:04.273Z,8.90
2022-08-30T04:21:31.081Z,8.77
2022-08-30T04:23:58.003Z,8.23
2022-08-30T04:26:29.315Z,8.40
2022-08-30T04:28:57.569Z,8.10
2022-08-30T04:31:24.476Z,8.90
2022-08-30T04:33:51.291Z,8.33
2022-08-30T04:36:18.008Z,8.50
2022-08-30T04:38:44.731Z,8.07
2022-08-30T04:41:18.998Z,8.70
2022-08-30T04:43:48.301Z,8.50
2022-08-30T04:46:15.107Z,8.33
2022-08-30T04:48:42.131Z,8.47
2022-08-30T04:51:14.079Z,8.47
2022-08-30T04:53:42.252Z,7.67
2022-08-30T04:56:11.514Z,8.37
2022-08-30T04:58:38.565Z,8.33
2022-08-30T05:01:05.545Z,8.83
2022-08-30T05:03:33.481Z,8.90
2022-08-30T05:06:00.260Z,8.83
2022-08-30T05:08:27.019Z,7.43
2022-08-30T05:10:55.235Z,8.40
2022-08-30T05:13:24.349Z,8.30
2022-08-30T05:16:04.421Z,8.43
2022-08-30T05:18:31.333Z,8.67
2022-08-30T05:21:17.111Z,8.40
2022-08-30T05:23:44.403Z,10.20
2022-08-30T05:26:20.468Z,8.47
2022-08-30T05:28:48.995Z,8.13
2022-08-30T05:31:20.120Z,8.77
2022-08-30T05:33:48.600Z,10.00
2022-08-30T05:36:18.511Z,9.00
2022-08-30T05:38:45.606Z,9.60
2022-08-30T05:41:13.486Z,10.87
2022-08-30T05:43:40.284Z,12.10
2022-08-30T05:46:10.640Z,12.63
2022-08-30T05:48:38.451Z,12.47
2022-08-30T05:51:09.793Z,12.43
2022-08-30T05:53:36.951Z,12.43
2022-08-30T05:56:05.910Z,13.43
2022-08-30T05:58:33.401Z,11.67
2022-08-30T06:01:00.609Z,11.90
2022-08-30T06:03:28.175Z,10.80
2022-08-30T06:05:55.000Z,11.07
2022-08-30T06:08:22.270Z,10.50
2022-08-30T06:10:49.121Z,10.67
2022-08-30T06:13:15.879Z,9.17
2022-08-30T06:15:47.151Z,10.40
2022-08-30T06:18:14.135Z,10.60
2022-08-30T06:20:47.445Z,10.57
2022-08-30T06:23:17.992Z,10.50
2022-08-30T06:25:44.956Z,11.27
2022-08-30T06:28:12.339Z,11.77
2022-08-30T06:30:41.591Z,11.40
2022-08-30T06:33:08.989Z,10.37
2022-08-30T06:36:00.432Z,16.50
2022-08-30T06:38:28.461Z,12.13
2022-08-30T06:40:55.263Z,11.37
2022-08-30T06:43:22.058Z,9.40
2022-08-30T06:45:48.837Z,12.33
2022-08-30T06:48:15.776Z,9.93
2022-08-30T06:50:43.477Z,9.27
2022-08-30T06:53:10.314Z,9.53
2022-08-30T06:55:37.404Z,10.23
2022-08-30T06:58:07.856Z,9.73
2022-08-30T07:00:34.674Z,9.13
2022-08-30T07:03:03.847Z,9.53
2022-08-30T07:05:30.624Z,8.80
2022-08-30T07:07:57.398Z,9.57
2022-08-30T07:10:24.220Z,9.20
2022-08-30T07:12:51.166Z,9.10
2022-08-30T07:15:22.819Z,8.80
2022-08-30T07:18:08.332Z,9.20
2022-08-30T07:20:40.246Z,9.43
2022-08-30T07:23:07.816Z,10.60
2022-08-30T07:25:36.917Z,8.03
2022-08-30T07:28:04.813Z,8.97
2022-08-30T07:30:34.772Z,8.00
2022-08-30T07:33:01.799Z,8.63
2022-08-30T07:35:28.638Z,7.70
2022-08-30T07:37:55.530Z,8.27
2022-08-30T07:40:22.614Z,7.50
2022-08-30T07:42:49.413Z,9.37
2022-08-30T07:45:16.464Z,8.47
2022-08-30T07:47:43.192Z,8.00
2022-08-30T07:50:09.980Z,6.23
2022-08-30T07:55:06.311Z,7.57
2022-08-30T07:57:34.479Z,6.93
2022-08-30T08:00:01.865Z,7.37
2022-08-30T08:02:28.749Z,6.37
2022-08-30T08:04:55.587Z,6.60
2022-08-30T08:07:22.336Z,7.03
2022-08-30T08:09:49.474Z,7.60
2022-08-30T08:12:16.330Z,6.67
2022-08-30T08:14:43.115Z,6.20
2022-08-30T08:17:10.023Z,6.50
2022-08-30T08:19:36.782Z,5.97
2022-08-30T08:22:19.875Z,6.53
2022-08-30T08:24:47.204Z,6.23
2022-08-30T08:27:13.920Z,6.00
2022-08-30T08:29:40.746Z,5.93
2022-08-30T08:32:07.594Z,6.23
2022-08-30T08:34:36.013Z,6.10
2022-08-30T08:37:03.137Z,5.90
2022-08-30T08:39:29.920Z,5.90
2022-08-30T08:42:08.115Z,6.00
2022-08-30T08:47:33.109Z,5.60
2022-08-30T08:50:03.214Z,6.00
2022-08-30T08:52:54.936Z,5.60
2022-08-30T08:55:23.385Z,5.60
2022-08-30T08:57:52.614Z,6.77
2022-08-30T09:00:19.536Z,6.67
2022-08-30T09:02:55.878Z,6.23
2022-08-30T09:05:28.552Z,6.90
2022-08-30T09:08:10.133Z,5.80
2022-08-30T09:10:49.958Z,6.43
2022-08-30T09:13:18.853Z,6.30
2022-08-30T09:15:47.406Z,7.37
2022-08-30T09:18:19.652Z,6.40
2022-08-30T09:20:49.244Z,5.93
2022-08-30T09:23:15.938Z,6.50
2022-08-30T09:26:07.191Z,6.03
2022-08-30T09:28:51.013Z,6.17
2022-08-30T09:31:23.697Z,5.73
2022-08-30T09:34:25.935Z,7.07
2022-08-30T09:36:56.018Z,5.33
2022-08-30T09:39:37.349Z,6.80
2022-08-30T09:42:19.788Z,6.87
2022-08-30T09:44:46.630Z,6.20
2022-08-30T09:47:31.488Z,6.20
2022-08-30T09:50:15.077Z,6.63
2022-08-30T09:53:11.743Z,5.67
2022-08-30T09:56:01.712Z,5.87
2022-08-30T09:58:56.533Z,6.20
2022-08-30T10:01:55.659Z,5.63
2022-08-30T10:04:40.196Z,6.07
2022-08-30T10:07:12.162Z,6.13
2022-08-30T10:10:02.842Z,5.60
2022-08-30T10:12:39.855Z,5.60
2022-08-30T10:15:21.627Z,7.37
2022-08-30T10:17:48.778Z,5.00
2022-08-30T10:20:31.684Z,5.60
2022-08-30T10:23:03.935Z,5.97
2022-08-30T10:25:41.730Z,5.30
2022-08-30T10:28:19.109Z,6.00
2022-08-30T10:30:54.275Z,5.90
2022-08-30T10:33:28.704Z,6.43
2022-08-30T10:36:03.543Z,5.53
2022-08-30T10:38:37.829Z,5.20
2022-08-30T10:41:36.832Z,5.03
2022-08-30T10:44:27.803Z,4.70
2022-08-30T10:47:23.002Z,4.80
2022-08-30T10:49:55.485Z,5.50
2022-08-30T10:52:35.361Z,5.10
2022-08-30T10:55:11.348Z,5.47
2022-08-30T10:57:38.814Z,5.23
2022-08-30T11:00:14.111Z,4.80
2022-08-30T11:03:02.092Z,5.00
2022-08-30T11:05:59.896Z,5.27
2022-08-30T11:08:41.728Z,4.80
2022-08-30T11:11:16.417Z,4.83
2022-08-30T11:13:44.905Z,4.83
2022-08-30T11:16:19.032Z,4.57
2022-08-30T11:18:54.006Z,4.10
2022-08-30T11:21:25.021Z,4.80
2022-08-30T11:24:12.590Z,5.30
2022-08-30T11:26:45.908Z,5.43
2022-08-30T11:29:31.790Z,5.40
2022-08-30T11:32:21.273Z,5.30
2022-08-30T11:34:47.952Z,5.60
2022-08-30T11:37:37.107Z,4.53
2022-08-30T11:40:13.231Z,5.13
2022-08-30T11:42:49.318Z,5.60
2022-08-30T11:45:26.742Z,4.13
2022-08-30T11:48:04.471Z,5.57
2022-08-30T11:50:55.208Z,5.27
2022-08-30T11:53:46.497Z,5.03
2022-08-30T11:56:22.496Z,5.23
2022-08-30T11:59:01.784Z,5.67
2022-08-30T12:01:51.259Z,5.57
2022-08-30T12:04:18.022Z,5.90
2022-08-30T12:06:51.525Z,5.80
2022-08-30T12:09:21.183Z,5.30
2022-08-30T12:12:07.193Z,5.10
2022-08-30T12:14:44.637Z,5.20
2022-08-30T12:17:42.149Z,5.13
2022-08-30T12:20:47.186Z,5.10
2022-08-30T12:23:19.160Z,4.70
2022-08-30T12:25:46.603Z,4.80
2022-08-30T12:28:42.143Z,4.70
2022-08-30T12:31:19.938Z,5.50
2022-08-30T12:33:55.500Z,5.60
2022-08-30T12:36:48.998Z,5.83
2022-08-30T12:39:20.419Z,4.87
2022-08-30T12:41:47.257Z,5.10
2022-08-30T12:44:25.798Z,5.20
2022-08-30T12:46:59.515Z,4.67
2022-08-30T12:49:29.968Z,5.20
2022-08-30T12:52:15.841Z,4.93
2022-08-30T12:54:45.257Z,5.03
2022-08-30T12:57:34.278Z,4.77
2022-08-30T13:00:01.975Z,4.60
2022-08-30T13:02:44.686Z,5.20
2022-08-30T13:05:48.069Z,5.00
2022-08-30T13:08:18.479Z,4.67
2022-08-30T13:11:24.878Z,4.73
2022-08-30T13:14:29.755Z,5.00
2022-08-30T13:17:20.332Z,4.40
2022-08-30T13:19:58.287Z,4.80
2022-08-30T13:22:31.259Z,4.60
2022-08-30T13:24:58.730Z,4.60
2022-08-30T13:27:26.933Z,5.03
2022-08-30T13:29:54.323Z,4.53
2022-08-30T13:32:22.350Z,4.60
2022-08-30T13:34:49.308Z,4.33
2022-08-30T13:40:14.511Z,4.23
2022-08-30T13:42:42.902Z,4.70
2022-08-30T13:45:43.618Z,3.83
2022-08-30T13:48:00.913Z,4.10
2022-08-30T13:50:28.322Z,4.87
2022-08-30T13:52:57.398Z,4.73
2022-08-30T13:55:24.201Z,4.73
2022-08-30T13:57:55.092Z,4.87
2022-08-30T14:00:23.711Z,5.57
2022-08-30T14:02:55.915Z,4.07
2022-08-30T14:11:05.723Z,4.33
2022-08-30T14:13:32.926Z,4.50
2022-08-30T14:18:48.956Z,4.70
2022-08-30T14:21:16.070Z,4.90
2022-08-30T14:23:42.925Z,4.30
2022-08-30T14:26:24.537Z,4.30
2022-08-30T14:28:53.051Z,4.20
2022-08-30T14:31:20.290Z,4.40
2022-08-30T14:33:47.569Z,4.70
2022-08-30T14:36:15.485Z,4.80
2022-08-30T14:38:43.566Z,5.00
2022-08-30T14:41:11.064Z,4.40
2022-08-30T14:43:40.587Z,4.70
2022-08-30T14:46:08.990Z,4.90
2022-08-30T14:48:38.501Z,5.47
2022-08-30T14:51:16.939Z,4.80
2022-08-30T14:53:44.862Z,4.60
2022-08-30T14:56:15.582Z,5.03
2022-08-30T14:58:42.954Z,5.43
2022-08-30T15:01:12.353Z,4.60
2022-08-30T15:03:40.829Z,5.10
2022-08-30T15:06:09.180Z,5.47
2022-08-30T15:08:37.207Z,4.57
2022-08-30T15:11:09.433Z,5.13
2022-08-30T15:13:36.714Z,4.67
2022-08-30T15:16:10.907Z,5.30
2022-08-30T15:18:37.980Z,5.60
2022-08-30T15:21:04.909Z,5.20
2022-08-30T15:23:32.049Z,5.03
2022-08-30T15:25:59.519Z,5.10
2022-08-30T15:28:26.324Z,4.47
2022-08-30T15:30:53.104Z,5.10
2022-08-30T15:33:19.828Z,5.27
2022-08-30T15:35:46.636Z,4.73
2022-08-30T15:38:13.496Z,5.10
2022-08-30T15:40:40.536Z,5.20
2022-08-30T15:43:07.306Z,5.20
2022-08-30T15:45:34.029Z,5.07
2022-08-30T15:48:00.936Z,5.10
2022-08-30T15:50:28.407Z,5.17
2022-08-30T15:52:55.224Z,4.87
2022-08-30T15:55:22.187Z,4.53
2022-08-30T15:57:49.116Z,5.00
2022-08-30T16:00:16.372Z,5.63
2022-08-30T16:02:43.950Z,4.90
2022-08-30T16:05:10.915Z,4.93
2022-08-30T16:07:40.870Z,5.30
2022-08-30T16:10:08.831Z,5.00
2022-08-30T16:12:35.569Z,5.10
2022-08-30T16:15:02.273Z,5.27
2022-08-30T16:17:29.029Z,4.83
2022-08-30T16:19:58.936Z,5.40
2022-08-30T16:22:26.472Z,5.77
2022-08-30T16:24:53.252Z,5.57
2022-08-30T16:27:22.028Z,6.00
2022-08-30T16:29:50.133Z,4.67
2022-08-30T16:32:17.570Z,5.20
2022-08-30T16:34:45.145Z,6.13
2022-08-30T16:37:11.943Z,5.40
2022-08-30T16:39:38.708Z,5.27
2022-08-30T16:42:06.769Z,5.00
2022-08-30T16:44:33.877Z,5.23
2022-08-30T16:47:02.730Z,5.47
2022-08-30T16:49:29.758Z,5.50
2022-08-30T16:51:56.578Z,5.70
2022-08-30T16:54:23.645Z,5.13
2022-08-30T16:56:50.733Z,5.17
2022-08-30T16:59:17.707Z,5.10
2022-08-30T17:01:45.726Z,5.53
2022-08-30T17:04:18.523Z,4.30
2022-08-30T17:06:48.048Z,5.73
2022-08-30T17:09:17.393Z,5.00
2022-08-30T17:11:44.719Z,5.53
2022-08-30T17:14:12.129Z,5.63
2022-08-30T17:16:39.143Z,5.10
2022-08-30T17:19:09.066Z,4.80
2022-08-30T17:21:36.373Z,5.20
2022-08-30T17:24:05.937Z,5.50
2022-08-30T17:26:34.546Z,5.30
2022-08-30T17:29:02.275Z,5.37
2022-08-30T17:31:31.129Z,5.90
2022-08-30T17:34:02.799Z,4.90
2022-08-30T17:36:35.442Z,5.53
2022-08-30T17:39:22.138Z,5.20
2022-08-30T17:41:51.568Z,5.50
2022-08-30T17:44:25.654Z,5.57
2022-08-30T17:46:53.297Z,5.10
2022-08-30T17:49:21.145Z,5.30
2022-08-30T17:51:54.172Z,6.00
2022-08-30T17:54:24.475Z,5.97
2022-08-30T17:56:52.680Z,5.60
2022-08-30T17:59:19.497Z,5.30
2022-08-30T18:01:52.453Z,5.60
2022-08-30T18:04:19.664Z,6.17
2022-08-30T18:06:46.858Z,4.80
2022-08-30T18:09:13.584Z,3.70
2022-08-30T18:11:41.120Z,3.60
2022-08-30T18:14:10.876Z,5.20
2022-08-30T18:16:39.098Z,3.50
2022-08-30T18:19:17.378Z,5.37
2022-08-30T18:21:44.487Z,5.70
2022-08-30T18:24:11.300Z,5.87
2022-08-30T18:26:43.162Z,4.73
2022-08-30T18:29:10.933Z,4.60
2022-08-30T18:31:37.746Z,5.90
2022-08-30T18:34:04.664Z,6.13
2022-08-30T18:36:31.574Z,4.97
2022-08-30T18:38:58.693Z,5.37
2022-08-30T18:41:26.594Z,5.83
2022-08-30T18:44:10.889Z,5.03
2022-08-30T18:46:55.986Z,5.70
2022-08-30T18:49:25.245Z,4.70
2022-08-30T18:51:52.268Z,5.10
2022-08-30T18:54:19.404Z,5.50
2022-08-30T18:56:46.469Z,5.57
2022-08-30T18:59:13.511Z,4.73
2022-08-30T19:01:41.170Z,4.83
2022-08-30T19:04:08.484Z,5.13
2022-08-30T19:09:22.883Z,5.50
2022-08-30T19:11:49.784Z,4.80
2022-08-30T19:14:19.365Z,5.00
2022-08-30T19:16:46.294Z,4.73
2022-08-30T19:19:13.127Z,5.60
2022-08-30T19:21:40.088Z,5.40
2022-08-30T19:24:08.352Z,4.43
2022-08-30T19:26:37.590Z,5.13
2022-08-30T19:29:06.463Z,5.90
2022-08-30T19:31:33.818Z,4.77
2022-08-30T19:34:01.101Z,4.33
2022-08-30T19:36:29.224Z,4.30
2022-08-30T19:38:56.370Z,4.60
2022-08-30T19:41:23.643Z,4.30
2022-08-30T19:43:51.695Z,4.63
2022-08-30T19:46:19.127Z,4.13
2022-08-30T19:48:46.242Z,4.87
2022-08-30T19:51:15.278Z,4.33
2022-08-30T19:53:43.379Z,4.57
2022-08-30T19:56:10.946Z,4.43
2022-08-30T19:58:38.088Z,4.87
2022-08-30T20:01:12.289Z,4.40
2022-08-30T20:03:52.911Z,4.57
2022-08-30T20:06:24.159Z,4.63
2022-08-30T20:08:51.825Z,5.10
2022-08-30T20:11:23.933Z,5.07
2022-08-30T20:13:50.892Z,4.80
2022-08-30T20:16:18.263Z,4.10
2022-08-30T20:18:45.692Z,4.63
2022-08-30T20:21:14.465Z,4.70
2022-08-30T20:23:43.286Z,5.00
2022-08-30T20:24:31.780Z,5.90
2022-08-30T20:26:12.170Z,5.00
2022-08-30T20:28:39.969Z,4.60
2022-08-30T20:31:08.497Z,5.03
2022-08-30T20:33:39.501Z,4.67
2022-08-30T20:36:09.716Z,4.00
2022-08-30T20:38:36.911Z,5.30
2022-08-30T20:41:10.545Z,4.90
2022-08-30T20:43:38.280Z,5.00
2022-08-30T20:46:10.286Z,4.97
2022-08-30T20:48:38.182Z,4.43
2022-08-30T20:51:09.558Z,5.23
2022-08-30T20:53:36.852Z,5.30
2022-08-30T20:56:04.586Z,5.10
2022-08-30T20:58:31.486Z,4.87
2022-08-30T21:00:58.387Z,4.90
2022-08-30T21:03:26.155Z,5.90
2022-08-30T21:05:55.900Z,5.70
2022-08-30T21:08:22.741Z,5.50
2022-08-30T21:10:49.754Z,5.10
2022-08-30T21:13:17.223Z,4.70
2022-08-30T21:15:46.088Z,4.47
2022-08-30T21:18:14.234Z,4.30
2022-08-30T21:20:41.544Z,5.00
2022-08-30T21:23:08.791Z,4.83
2022-08-30T21:25:38.843Z,5.10
2022-08-30T21:28:06.556Z,8.00
2022-08-30T21:30:34.555Z,5.50
2022-08-30T21:33:03.526Z,5.37
2022-08-30T21:35:48.837Z,5.60
2022-08-30T21:38:16.956Z,4.60
2022-08-30T21:40:44.025Z,5.10
2022-08-30T21:43:11.186Z,4.50
2022-08-30T21:45:39.088Z,5.00
2022-08-30T21:48:06.384Z,4.33
2022-08-30T21:50:33.390Z,4.90
2022-08-30T21:53:00.730Z,5.10
2022-08-30T21:55:27.555Z,4.50
2022-08-30T21:57:54.999Z,5.20
2022-08-30T22:00:22.082Z,4.57
2022-08-30T22:02:49.256Z,5.27
2022-08-30T22:05:20.213Z,4.77
2022-08-30T22:07:47.062Z,5.10
2022-08-30T22:10:15.520Z,5.20
2022-08-30T22:12:42.318Z,4.20
2022-08-30T22:15:09.719Z,4.77
2022-08-30T22:17:36.517Z,4.87
2022-08-30T22:20:05.271Z,5.60
2022-08-30T22:22:32.489Z,4.90
2022-08-30T22:24:59.385Z,4.07
2022-08-30T22:27:26.263Z,4.63
2022-08-30T22:29:53.070Z,4.20
2022-08-30T22:32:19.895Z,4.70
2022-08-30T22:34:46.993Z,4.90
2022-08-30T22:37:13.913Z,4.10
2022-08-30T22:39:40.623Z,4.63
2022-08-30T22:42:09.792Z,4.67
2022-08-30T22:44:36.584Z,4.90
2022-08-30T22:47:03.549Z,4.47
2022-08-30T22:49:30.870Z,4.77
2022-08-30T22:51:57.577Z,4.70
2022-08-30T22:54:24.329Z,4.70
2022-08-30T22:56:51.165Z,5.07
2022-08-30T22:59:17.938Z,4.60
2022-08-30T23:01:45.372Z,3.60
2022-08-30T23:04:13.088Z,4.50
2022-08-30T23:06:40.716Z,4.27
2022-08-30T23:09:08.410Z,4.20
2022-08-30T23:11:38.350Z,4.30
2022-08-30T23:14:06.390Z,4.70
2022-08-30T23:16:34.317Z,4.50
2022-08-30T23:19:01.061Z,4.30
2022-08-30T23:21:30.109Z,4.57
2022-08-30T23:24:16.471Z,4.90
2022-08-30T23:27:03.370Z,4.70
2022-08-30T23:29:49.654Z,4.90
2022-08-30T23:32:35.135Z,4.33
2022-08-30T23:35:20.645Z,4.53
2022-08-30T23:38:12.608Z,4.77
2022-08-30T23:40:58.114Z,4.57
2022-08-30T23:43:43.871Z,5.03
2022-08-30T23:46:29.351Z,4.50
2022-08-30T23:49:14.764Z,5.30
2022-08-30T23:52:00.420Z,4.70
2022-08-30T23:54:45.930Z,5.23
2022-08-30T23:57:31.491Z,5.43
